Time;durP1;ratioP1;P1;durP2;ratioP2;P2;SDS_P1;SDS_P2;PMS_P1;PMS_P2;Temp;Humidity;BMP_temperature;BMP_pressure;BME280_temperature;BME280_humidity;BME280_pressure;Samples;Min_cycle;Max_cycle;Signal;HPM_P1;HPM_P2
2022/08/08 00:00:11;;;;;;;16.65;9.05;;;;;;;19.69;78.19;99381.59;4914919;29;20035;-96
2022/08/08 00:02:58;;;;;;;13.77;9.38;;;;;;;19.67;78.70;99383.06;4905706;29;20034;-94
2022/08/08 00:05:42;;;;;;;12.00;8.38;;;;;;;19.69;78.64;99380.78;4890191;29;20505;-95
2022/08/08 00:08:17;;;;;;;13.23;10.18;;;;;;;19.70;79.13;99380.50;4905632;29;20028;-94
2022/08/08 00:10:53;;;;;;;14.35;9.70;;;;;;;19.72;78.65;99377.44;4922058;29;20023;-95
2022/08/08 00:13:31;;;;;;;15.70;10.80;;;;;;;19.75;79.11;99374.03;4906431;29;20070;-95
2022/08/08 00:16:01;;;;;;;15.70;10.88;;;;;;;19.66;79.22;99370.53;4891559;29;20083;-95
2022/08/08 00:18:34;;;;;;;15.77;9.60;;;;;;;19.84;78.99;99391.22;4890704;29;20447;-96
2022/08/08 00:21:00;;;;;;;15.05;10.10;;;;;;;19.78;78.51;99382.38;4891234;29;20039;-95
2022/08/08 00:23:25;;;;;;;13.13;9.38;;;;;;;19.82;78.16;99390.75;4889150;29;20028;-93
2022/08/08 00:25:53;;;;;;;12.25;8.68;;;;;;;19.70;77.75;99385.97;4921282;29;20051;-95
2022/08/08 00:28:35;;;;;;;11.05;8.32;;;;;;;19.61;78.59;99377.00;4890110;29;20011;-95
2022/08/08 00:31:01;;;;;;;15.10;8.13;;;;;;;19.69;77.97;99389.78;4905612;29;20035;-93
2022/08/08 00:33:29;;;;;;;11.10;7.82;;;;;;;19.71;77.68;99403.16;4904450;29;20107;-94
2022/08/08 00:36:14;;;;;;;18.77;10.40;;;;;;;19.70;77.99;99404.25;4890862;29;20031;-94
2022/08/08 00:38:48;;;;;;;13.70;9.50;;;;;;;19.71;77.83;99405.88;4909204;29;20466;-93
2022/08/08 00:41:29;;;;;;;11.85;8.35;;;;;;;19.74;77.59;99395.09;4893808;29;20095;-95
2022/08/08 00:44:06;;;;;;;9.05;6.57;;;;;;;20.05;76.24;99399.44;4924794;29;20027;-95
2022/08/08 00:46:50;;;;;;;9.48;6.57;;;;;;;20.08;76.02;99400.72;4909171;29;20027;-94
2022/08/08 00:49:57;;;;;;;11.25;6.72;;;;;;;20.16;75.39;99400.66;4942037;29;20126;-94
2022/08/08 00:52:27;;;;;;;9.73;6.00;;;;;;;20.19;74.41;99391.78;4916925;29;20067;-95
2022/08/08 00:55:17;;;;;;;8.25;6.30;;;;;;;20.19;74.46;99393.69;4908982;29;20032;-95
2022/08/08 00:58:07;;;;;;;7.18;5.88;;;;;;;20.24;74.22;99412.66;4924930;29;20090;-95
2022/08/08 01:01:02;;;;;;;7.43;5.93;;;;;;;20.18;74.11;99406.59;4924765;29;20035;-95
2022/08/08 01:03:27;;;;;;;6.43;5.22;;;;;;;20.28;73.98;99405.41;4920093;29;20031;-94
2022/08/08 01:06:11;;;;;;;7.75;5.43;;;;;;;20.36;73.40;99414.69;4924500;29;20030;-95
2022/08/08 01:08:40;;;;;;;8.80;5.88;;;;;;;20.34;73.01;99415.00;4941420;29;20083;-94
2022/08/08 01:11:27;;;;;;;8.27;5.30;;;;;;;20.40;72.42;99421.09;4923911;29;20406;-96
2022/08/08 01:14:17;;;;;;;8.38;5.15;;;;;;;20.34;72.42;99414.22;4924098;29;20028;-94
2022/08/08 01:17:18;;;;;;;7.65;5.80;;;;;;;20.28;73.09;99419.06;4940907;29;20019;-95
2022/08/08 01:20:18;;;;;;;6.90;5.57;;;;;;;19.98;74.21;99412.81;4907768;29;20122;-95
2022/08/08 01:23:05;;;;;;;8.30;5.22;;;;;;;19.76;75.49;99422.09;4924320;29;20068;-94
2022/08/08 01:26:00;;;;;;;9.25;6.18;;;;;;;19.59;75.42;99431.94;4922865;29;20090;-95
2022/08/08 01:29:02;;;;;;;8.50;6.20;;;;;;;19.38;76.42;99422.84;4902220;29;20067;-95
2022/08/08 01:31:53;;;;;;;8.93;6.68;;;;;;;19.27;76.84;99427.06;4923750;29;20118;-94
2022/08/08 01:34:34;;;;;;;7.60;6.55;;;;;;;19.14;76.90;99426.13;4907963;29;20035;-95
2022/08/08 01:37:23;;;;;;;9.45;6.55;;;;;;;19.05;77.44;99417.97;4923636;29;20027;-95
2022/08/08 01:40:04;;;;;;;8.05;6.53;;;;;;;19.03;77.19;99413.94;4913823;29;20040;-95
2022/08/08 01:42:46;;;;;;;7.33;6.40;;;;;;;18.90;77.68;99399.34;4904918;29;20028;-95
2022/08/08 01:45:32;;;;;;;7.68;6.50;;;;;;;19.02;77.60;99418.59;4889741;29;20024;-95
2022/08/08 01:48:28;;;;;;;9.63;7.20;;;;;;;19.03;77.18;99417.50;4904327;29;20051;-94
2022/08/08 01:51:26;;;;;;;12.07;7.28;;;;;;;18.95;77.49;99418.31;4920086;29;20103;-95
2022/08/08 01:53:57;;;;;;;11.07;8.13;;;;;;;18.75;78.10;99393.25;4890367;29;20035;-94
2022/08/08 01:56:41;;;;;;;;;;;;;;;18.94;77.63;99422.94;4908149;29;20133;-95
2022/08/08 01:59:42;;;;;;;10.32;7.93;;;;;;;18.86;78.33;99426.47;4920342;29;19911;-95
2022/08/08 02:02:28;;;;;;;13.18;8.20;;;;;;;18.80;79.01;99416.06;4889192;29;20063;-94
2022/08/08 02:04:57;;;;;;;12.57;9.23;;;;;;;18.70;79.06;99412.50;4919748;29;20036;-95
2022/08/08 02:07:27;;;;;;;12.25;9.60;;;;;;;18.72;79.29;99417.66;4904503;29;20107;-94
2022/08/08 02:10:14;;;;;;;13.93;8.80;;;;;;;18.89;78.29;99433.22;4904921;29;20439;-95
2022/08/08 02:12:51;;;;;;;10.43;8.40;;;;;;;18.83;78.83;99429.06;4905223;29;20061;-95
2022/08/08 02:15:47;;;;;;;11.93;8.48;;;;;;;18.78;78.49;99428.09;4889065;29;20115;-96
2022/08/08 02:18:29;;;;;;;13.43;9.05;;;;;;;18.62;78.76;99404.34;4904572;29;20039;-95
2022/08/08 02:24:28;;;;;;;11.02;8.27;;;;;;;18.69;78.99;99426.47;4919666;29;20099;-96
2022/08/08 02:27:03;;;;;;;13.00;8.45;;;;;;;18.58;79.27;99415.06;4867172;29;20040;-95
2022/08/08 02:30:02;;;;;;;17.33;14.65;;;;;;;18.70;79.12;99439.00;4904706;29;20028;-95
2022/08/08 02:33:15;;;;;;;10.60;8.25;;;;;;;18.71;79.11;99429.66;4887565;29;20414;-94
2022/08/08 02:35:53;;;;;;;15.25;9.90;;;;;;;18.68;79.54;99447.47;4862494;29;20037;-95
2022/08/08 02:38:21;;;;;;;13.77;10.15;;;;;;;18.73;79.31;99441.84;4912143;29;20114;-95
2022/08/08 02:41:14;;;;;;;12.18;9.48;;;;;;;18.57;79.24;99410.72;4903228;29;20035;-94
2022/08/08 02:44:04;;;;;;;9.60;7.78;;;;;;;18.69;77.96;99445.56;4890351;29;20031;-95
2022/08/08 02:46:44;;;;;;;12.25;7.65;;;;;;;18.50;78.21;99424.84;4919072;29;20029;-95
2022/08/08 02:49:31;;;;;;;11.20;8.07;;;;;;;18.62;78.27;99448.78;4887657;29;20032;-95
2022/08/08 02:52:01;;;;;;;13.57;9.10;;;;;;;18.60;78.20;99442.03;4903358;29;20032;-96
2022/08/08 02:55:00;;;;;;;11.60;8.05;;;;;;;18.60;78.99;99445.56;4903875;29;20083;-96
2022/08/08 02:57:53;;;;;;;11.70;7.93;;;;;;;18.60;78.86;99442.81;4919784;29;20079;-94
2022/08/08 03:00:27;;;;;;;11.20;8.68;;;;;;;18.60;78.92;99439.31;4918773;29;20052;-96
2022/08/08 03:03:23;;;;;;;12.25;9.18;;;;;;;18.51;78.71;99433.81;4919245;29;20059;-94
2022/08/08 03:06:18;;;;;;;11.57;8.63;;;;;;;18.51;78.40;99444.72;4904254;29;20050;-95
2022/08/08 03:09:29;;;;;;;12.63;9.10;;;;;;;18.49;78.67;99450.53;4892256;29;20492;-94
2022/08/08 03:12:20;;;;;;;12.80;8.97;;;;;;;18.51;78.14;99452.91;4912561;29;20024;-96
2022/08/08 03:14:51;;;;;;;13.43;9.10;;;;;;;18.35;78.48;99455.31;4903224;29;20080;-93
2022/08/08 03:17:23;;;;;;;13.27;9.32;;;;;;;18.35;78.49;99463.50;4903402;29;20383;-94
2022/08/08 03:22:29;;;;;;;11.18;7.95;;;;;;;18.35;78.19;99464.28;4921184;29;20036;-94
2022/08/08 03:24:55;;;;;;;11.63;8.43;;;;;;;18.34;78.93;99461.88;4903444;29;20499;-95
2022/08/08 03:27:32;;;;;;;11.93;8.70;;;;;;;18.27;79.42;99465.06;4872490;29;20031;-93
2022/08/08 03:30:03;;;;;;;10.23;8.68;;;;;;;18.28;79.09;99466.69;4919393;29;20032;-93
2022/08/08 03:35:13;;;;;;;18.58;9.55;;;;;;;18.32;79.18;99466.84;4906083;29;20035;-94
2022/08/08 03:37:39;;;;;;;15.98;9.43;;;;;;;18.32;78.72;99475.84;4872899;29;20471;-95
2022/08/08 03:40:05;;;;;;;12.23;8.82;;;;;;;18.22;78.62;99459.78;4887677;29;20491;-95
2022/08/08 03:42:31;;;;;;;12.10;8.65;;;;;;;18.34;78.54;99491.84;4886578;29;20035;-94
2022/08/08 03:44:57;;;;;;;12.70;9.27;;;;;;;18.26;79.72;99482.56;4887140;29;20028;-94
2022/08/08 03:47:22;;;;;;;14.90;9.70;;;;;;;18.12;79.96;99477.22;4903187;29;20051;-93
2022/08/08 03:49:48;;;;;;;17.05;11.13;;;;;;;18.13;79.93;99494.38;4902751;29;20119;-93
2022/08/08 03:52:14;;;;;;;18.33;11.02;;;;;;;18.07;80.13;99474.63;4871979;29;20024;-93
2022/08/08 03:54:44;;;;;;;15.27;10.88;;;;;;;18.14;79.50;99480.44;4874566;29;20032;-94
2022/08/08 03:57:13;;;;;;;31.75;11.00;;;;;;;18.21;79.27;99492.81;4903192;29;20020;-94
2022/08/08 03:59:39;;;;;;;18.15;9.88;;;;;;;18.16;79.25;99491.03;4872217;29;20032;-93
2022/08/08 04:02:23;;;;;;;14.02;9.38;;;;;;;18.15;78.79;99486.69;4870843;29;20035;-94
2022/08/08 04:04:48;;;;;;;15.65;10.50;;;;;;;18.17;78.73;99496.13;4903270;29;20024;-96
2022/08/08 04:07:15;;;;;;;17.33;12.45;;;;;;;18.06;78.96;99475.75;4872650;29;20411;-93
2022/08/08 04:09:40;;;;;;;16.45;11.45;;;;;;;18.11;78.76;99486.50;4888372;29;20024;-94
2022/08/08 04:12:06;;;;;;;17.45;12.40;;;;;;;18.22;78.72;99497.94;4916652;29;20032;-93
2022/08/08 04:14:31;;;;;;;19.42;10.15;;;;;;;18.09;79.31;99482.50;4874877;29;20028;-94
2022/08/08 04:16:57;;;;;;;17.70;11.95;;;;;;;18.25;79.87;99515.56;4879455;29;20075;-93
2022/08/08 04:19:22;;;;;;;15.60;11.63;;;;;;;18.13;79.48;99494.38;4911920;29;20623;-94
2022/08/08 04:21:49;;;;;;;16.30;11.32;;;;;;;18.19;79.00;99490.38;4893001;29;20024;-94
2022/08/08 04:24:15;;;;;;;17.05;10.40;;;;;;;18.53;78.52;99514.22;4905952;29;20438;-94
2022/08/08 04:26:40;;;;;;;13.73;9.85;;;;;;;18.51;78.30;99516.44;4899177;29;20070;-93
2022/08/08 04:29:06;;;;;;;14.40;9.95;;;;;;;18.51;78.15;99486.47;4890179;29;20044;-93
2022/08/08 04:31:31;;;;;;;14.98;9.73;;;;;;;18.73;77.57;99518.22;4889421;29;20024;-93
2022/08/08 04:33:57;;;;;;;13.30;9.88;;;;;;;18.65;77.89;99497.19;4921452;29;20032;-94
2022/08/08 04:36:22;;;;;;;12.55;10.10;;;;;;;18.49;77.35;99488.69;4890504;29;20106;-94
2022/08/08 04:38:48;;;;;;;13.07;10.43;;;;;;;18.57;78.13;99500.72;4890491;29;20028;-93
2022/08/08 04:41:16;;;;;;;16.67;10.93;;;;;;;18.64;78.59;99522.09;4888885;29;20024;-93
2022/08/08 04:43:41;;;;;;;16.58;10.65;;;;;;;18.68;78.21;99523.06;4889813;29;20131;-93
2022/08/08 04:46:07;;;;;;;15.55;10.48;;;;;;;18.72;78.32;99515.84;4906200;29;20483;-95
2022/08/08 04:48:32;;;;;;;15.02;10.45;;;;;;;18.80;77.61;99506.06;4893661;29;20078;-94
2022/08/08 04:50:58;;;;;;;17.27;11.00;;;;;;;18.87;77.14;99504.47;4892454;29;20096;-93
2022/08/08 04:53:23;;;;;;;15.50;10.73;;;;;;;19.01;76.99;99528.06;4890733;29;20024;-93
2022/08/08 04:55:49;;;;;;;19.75;14.40;;;;;;;18.93;77.52;99499.69;4891051;29;20083;-92
2022/08/08 04:58:16;;;;;;;20.38;11.07;;;;;;;18.87;77.21;99490.84;4890118;29;20491;-94
2022/08/08 05:00:49;;;;;;;16.25;12.00;;;;;;;19.10;77.03;99504.31;4906636;29;20028;-93
2022/08/08 05:03:16;;;;;;;18.30;10.80;;;;;;;19.32;76.23;99523.25;4905086;29;20124;-95
2022/08/08 05:06:03;;;;;;;13.68;10.25;;;;;;;19.32;76.34;99503.31;4913067;29;20051;-96
2022/08/08 05:08:37;;;;;;;14.82;10.60;;;;;;;19.47;75.41;99511.03;4909987;29;20036;-95
2022/08/08 05:18:16;;;;;;;17.75;11.18;;;;;;;19.88;75.04;99539.72;4875027;29;20112;-94
2022/08/08 05:20:41;;;;;;;41.72;25.88;;;;;;;19.84;75.45;99508.72;4862586;29;20041;-90
2022/08/08 05:23:07;;;;;;;35.20;23.02;;;;;;;20.12;74.11;99539.13;4856441;29;20034;-95
2022/08/08 05:25:36;;;;;;;37.28;26.15;;;;;;;20.25;73.23;99529.09;4868146;29;20052;-94
2022/08/08 05:28:01;;;;;;;72.95;48.17;;;;;;;20.32;73.15;99528.59;4935072;29;20042;-91
2022/08/08 05:30:27;;;;;;;67.20;46.45;;;;;;;20.24;73.18;99519.31;4916453;29;20020;-90
2022/08/08 05:32:52;;;;;;;44.55;35.33;;;;;;;20.44;72.59;99531.44;4897242;29;20047;-91
2022/08/08 05:35:20;;;;;;;13.43;10.07;;;;;;;20.49;73.02;99533.16;4898791;29;20114;-92
2022/08/08 05:37:57;;;;;;;12.70;8.82;;;;;;;20.50;73.29;99518.34;4926012;29;20035;-93
2022/08/08 05:40:22;;;;;;;38.95;34.80;;;;;;;20.79;72.44;99526.56;4925225;29;20023;-88
2022/08/08 05:42:53;;;;;;;51.75;38.20;;;;;;;20.96;71.19;99527.56;4909408;29;20027;-90
2022/08/08 05:46:15;;;;;;;18.10;13.32;;;;;;;20.97;70.50;99527.22;4930879;29;20561;-90
2022/08/08 05:48:41;;;;;;;10.43;8.57;;;;;;;21.15;71.09;99538.84;4888738;29;20039;-91
2022/08/08 05:51:08;;;;;;;54.08;35.13;;;;;;;21.44;70.19;99559.09;4887453;29;20026;-91
2022/08/08 05:53:34;;;;;;;15.60;8.27;;;;;;;21.31;70.17;99539.03;4944790;29;20046;-92
2022/08/08 05:56:03;;;;;;;9.70;8.48;;;;;;;21.53;69.37;99545.31;4900895;29;20024;-93
2022/08/08 05:58:44;;;;;;;17.60;11.13;;;;;;;21.48;69.62;99535.34;4903895;29;20036;-95
2022/08/08 06:01:33;;;;;;;11.55;8.05;;;;;;;21.77;68.70;99555.53;4910698;29;20027;-90
2022/08/08 06:04:01;;;;;;;35.63;23.45;;;;;;;21.83;68.33;99556.94;4890282;29;20036;-93
2022/08/08 06:06:49;;;;;;;11.63;8.40;;;;;;;21.88;68.73;99556.69;4857861;29;20045;-94
2022/08/08 06:09:15;;;;;;;20.73;9.90;;;;;;;22.01;67.61;99543.81;4888163;29;20040;-94
2022/08/08 06:11:42;;;;;;;12.23;8.50;;;;;;;22.04;67.89;99529.41;4901867;29;20032;-96
2022/08/08 06:14:12;;;;;;;11.32;8.70;;;;;;;21.84;67.92;99542.06;4910080;29;20041;-95
2022/08/08 06:16:40;;;;;;;12.43;8.27;;;;;;;21.92;68.56;99541.16;4899756;29;20032;-94
2022/08/08 06:19:12;;;;;;;16.77;9.65;;;;;;;22.28;67.23;99547.06;4861527;29;20182;-94
2022/08/08 06:21:37;;;;;;;18.67;13.95;;;;;;;22.59;66.65;99571.97;4854669;29;20033;-95
2022/08/08 06:24:22;;;;;;;15.23;11.38;;;;;;;22.50;65.97;99543.06;4873775;29;20092;-94
2022/08/08 06:27:18;;;;;;;71.53;15.87;;;;;;;22.67;66.08;99540.06;4875405;29;20233;-95
2022/08/08 06:29:47;;;;;;;11.98;8.48;;;;;;;22.95;65.67;99564.03;4886274;29;20277;-96
2022/08/08 06:32:14;;;;;;;12.70;7.55;;;;;;;22.97;65.24;99543.31;4854481;29;20036;-96
2022/08/08 06:34:39;;;;;;;9.63;7.10;;;;;;;23.22;64.89;99550.69;4899952;29;20039;-92
2022/08/08 06:39:42;;;;;;;12.02;8.32;;;;;;;23.53;62.97;99556.31;5761574;23;20024;-94
2022/08/08 06:42:23;;;;;;;11.30;8.05;;;;;;;23.59;63.02;99554.91;4917977;29;20032;-95
2022/08/08 06:44:54;;;;;;;10.60;7.57;;;;;;;23.62;62.70;99549.84;4925547;29;20039;-95
2022/08/08 06:50:35;;;;;;;;;;;;;;;;;;;;;
2022/08/08 06:53:01;;;;;;;12.73;8.77;;;;;;;23.79;62.42;99547.59;4943235;29;20115;-94
2022/08/08 06:55:34;;;;;;;9.38;7.95;;;;;;;23.96;62.04;99543.69;4924929;29;20020;-96
2022/08/08 06:58:00;;;;;;;11.93;7.60;;;;;;;24.09;62.02;99549.13;4923292;29;20070;-91
2022/08/08 07:00:36;;;;;;;18.67;13.02;;;;;;;24.19;61.15;99543.06;4921869;29;20024;-93
2022/08/08 07:03:08;;;;;;;10.95;7.70;;;;;;;24.37;59.79;99533.31;4915898;29;20039;-88
2022/08/08 07:05:40;;;;;;;13.98;9.65;;;;;;;24.51;59.71;99535.63;4902560;29;20028;-95
2022/08/08 07:08:11;;;;;;;;;;;;;;;24.82;59.00;99564.25;4919936;29;20483;-93
2022/08/08 07:10:40;;;;;;;15.27;8.40;;;;;;;24.70;59.39;99545.88;4903884;29;19911;-95
2022/08/08 07:13:08;;;;;;;17.85;7.38;;;;;;;24.74;59.01;99540.47;4903598;29;20036;-93
2022/08/08 07:16:46;;;;;;;10.27;7.88;;;;;;;24.83;58.96;99559.53;4904626;29;20064;-94
2022/08/08 07:19:08;;;;;;;9.90;7.18;;;;;;;24.85;58.58;99549.75;4913650;29;20071;-95
2022/08/08 07:21:54;;;;;;;81.38;47.95;;;;;;;24.80;58.75;99537.06;4920465;29;20032;-95
2022/08/08 07:24:32;;;;;;;30.38;20.38;;;;;;;24.87;57.70;99521.84;4906793;29;20031;-95
2022/08/08 07:26:58;;;;;;;13.00;10.55;;;;;;;25.13;57.97;99543.22;4901012;29;20039;-94
2022/08/08 07:29:24;;;;;;;8.32;6.72;;;;;;;25.22;57.32;99541.09;4917091;29;20197;-95
2022/08/08 07:32:02;;;;;;;13.20;8.05;;;;;;;25.30;57.39;99537.31;4903826;29;20035;-95
2022/08/08 07:34:31;;;;;;;12.30;6.97;;;;;;;25.34;55.63;99543.72;4904884;29;20547;-92
2022/08/08 07:36:56;;;;;;;9.20;6.20;;;;;;;25.55;55.04;99532.28;4904743;29;20028;-91
2022/08/08 07:39:22;;;;;;;9.93;5.35;;;;;;;25.66;53.69;99532.47;4902347;29;20529;-94
2022/08/08 07:41:48;;;;;;;7.32;5.03;;;;;;;25.75;52.51;99538.56;4917780;29;20475;-93
2022/08/08 07:44:53;;;;;;;6.90;4.63;;;;;;;25.72;52.78;99527.47;4918043;29;20019;-91
2022/08/08 07:47:19;;;;;;;6.45;4.68;;;;;;;25.93;52.60;99538.91;4846175;29;20096;-93
2022/08/08 07:49:45;;;;;;;5.55;4.40;;;;;;;25.75;52.44;99523.97;4831789;29;20061;-94
2022/08/08 07:52:18;;;;;;;8.55;4.47;;;;;;;26.03;51.63;99533.94;4871214;29;20036;-93
2022/08/08 07:55:06;;;;;;;7.18;4.93;;;;;;;26.13;51.11;99545.16;4848537;29;20121;-92
2022/08/08 07:57:48;;;;;;;11.93;4.75;;;;;;;26.08;51.09;99550.97;4831924;29;20432;-92
2022/08/08 08:00:14;;;;;;;6.78;4.45;;;;;;;26.21;50.47;99546.88;4857553;29;20469;-91
2022/08/08 08:02:46;;;;;;;11.70;7.50;;;;;;;26.29;49.72;99541.44;4830011;29;20058;-90
2022/08/08 08:05:28;;;;;;;6.22;4.53;;;;;;;26.23;49.38;99538.22;4829391;29;20034;-92
2022/08/08 08:07:57;;;;;;;7.70;4.60;;;;;;;26.22;50.27;99547.66;4832649;29;20041;-94
2022/08/08 08:10:25;;;;;;;5.70;4.07;;;;;;;26.14;49.98;99526.63;4834773;29;20187;-95
2022/08/08 08:12:57;;;;;;;10.02;6.88;;;;;;;26.40;50.92;99542.44;4831010;29;20425;-93
2022/08/08 08:15:28;;;;;;;5.57;4.28;;;;;;;26.45;49.01;99533.81;4832285;29;20588;-94
2022/08/08 08:18:04;;;;;;;7.30;4.60;;;;;;;26.58;49.11;99532.47;4847547;29;20182;-95
2022/08/08 08:20:30;;;;;;;10.43;6.10;;;;;;;26.65;49.95;99536.50;4830674;29;20271;-90
2022/08/08 08:22:55;;;;;;;7.03;4.75;;;;;;;26.88;48.56;99537.22;4856588;29;20527;-93
2022/08/08 08:25:23;;;;;;;7.85;4.55;;;;;;;26.80;47.99;99522.50;4876611;29;20048;-93
2022/08/08 08:27:57;;;;;;;8.00;5.07;;;;;;;26.95;47.90;99519.94;4866678;29;20041;-92
2022/08/08 08:30:22;;;;;;;6.28;4.57;;;;;;;27.17;47.78;99523.75;4861544;29;20032;-93
2022/08/08 08:32:48;;;;;;;7.65;4.70;;;;;;;26.75;48.46;99536.66;4865686;29;20025;-93
2022/08/08 08:35:13;;;;;;;10.27;4.72;;;;;;;26.95;48.07;99522.69;4846433;29;20030;-91
2022/08/08 08:37:52;;;;;;;6.55;3.80;;;;;;;27.37;46.55;99543.75;4899085;29;20072;-91
2022/08/08 08:40:18;;;;;;;7.80;5.20;;;;;;;27.40;45.71;99520.88;4899537;29;20048;-92
2022/08/08 08:42:44;;;;;;;8.77;6.07;;;;;;;27.54;45.02;99518.28;4898251;29;20456;-91
2022/08/08 08:45:10;;;;;;;3.67;3.05;;;;;;;27.49;44.32;99521.38;4882054;29;20044;-93
2022/08/08 08:47:45;;;;;;;6.82;3.85;;;;;;;27.61;44.58;99512.78;4882217;29;20028;-93
2022/08/08 08:50:11;;;;;;;5.28;3.38;;;;;;;27.63;43.77;99514.41;4890597;29;20029;-94
2022/08/08 08:52:39;;;;;;;5.93;4.18;;;;;;;27.87;44.53;99533.25;4894138;29;20459;-94
2022/08/08 08:55:06;;;;;;;5.45;3.67;;;;;;;27.91;43.09;99525.78;4879253;29;20024;-92
2022/08/08 08:57:31;;;;;;;7.25;3.58;;;;;;;27.82;43.32;99511.41;4881807;29;20025;-94
2022/08/08 09:00:00;;;;;;;6.07;3.30;;;;;;;27.91;42.85;99517.47;4867173;29;20097;-91
2022/08/08 09:02:25;;;;;;;67.85;37.92;;;;;;;27.71;44.28;99496.69;4869522;29;20025;-93
2022/08/08 09:04:55;;;;;;;8.15;5.60;;;;;;;27.90;42.74;99507.56;4884208;29;20053;-93
2022/08/08 09:07:25;;;;;;;7.82;5.47;;;;;;;27.89;41.87;99497.69;4901253;29;20053;-91
2022/08/08 09:09:52;;;;;;;6.75;4.55;;;;;;;27.98;41.73;99506.44;4852794;29;20544;-94
2022/08/08 09:12:23;;;;;;;5.80;4.22;;;;;;;28.15;41.78;99498.66;4875435;29;20036;-93
2022/08/08 09:14:53;;;;;;;4.55;3.70;;;;;;;28.16;40.80;99501.06;4871176;29;20025;-94
2022/08/08 09:17:26;;;;;;;3.83;2.90;;;;;;;28.29;40.40;99487.69;4871624;29;20029;-95
2022/08/08 09:20:24;;;;;;;4.35;3.30;;;;;;;28.39;40.22;99491.72;4874413;29;20029;-96
2022/08/08 09:23:13;;;;;;;4.25;3.03;;;;;;;28.45;39.01;99478.28;4859778;29;20041;-93
2022/08/08 09:25:42;;;;;;;5.00;3.08;;;;;;;28.49;39.61;99479.91;4869420;29;20096;-93
2022/08/08 09:28:10;;;;;;;6.47;3.17;;;;;;;28.51;39.44;99480.31;4869525;29;20036;-96
2022/08/08 09:30:35;;;;;;;3.58;3.13;;;;;;;28.53;39.75;99474.41;4884704;29;20088;-94
2022/08/08 09:33:03;;;;;;;5.25;3.55;;;;;;;28.43;39.23;99464.84;4885391;29;20028;-96
2022/08/08 09:35:38;;;;;;;4.30;3.45;;;;;;;28.54;39.73;99471.25;4887588;29;20104;-93
2022/08/08 09:38:06;;;;;;;7.55;4.53;;;;;;;28.66;39.94;99494.25;4868926;29;20080;-94
2022/08/08 09:40:35;;;;;;;4.45;3.28;;;;;;;28.54;40.17;99471.25;4892444;29;20079;-94
2022/08/08 09:43:08;;;;;;;7.35;4.85;;;;;;;28.72;40.70;99487.97;4871118;29;20033;-95
2022/08/08 09:46:31;;;;;;;5.28;3.38;;;;;;;28.72;39.64;99459.44;4874823;29;20492;-94
2022/08/08 09:48:55;;;;;;;6.47;3.92;;;;;;;28.85;38.37;99471.00;4905268;29;20048;-95
2022/08/08 09:51:29;;;;;;;4.65;3.33;;;;;;;28.83;39.67;99467.81;4857356;29;20100;-94
2022/08/08 09:53:57;;;;;;;8.55;3.00;;;;;;;28.88;38.38;99457.13;4870564;29;20040;-95
2022/08/08 09:56:36;;;;;;;5.55;3.70;;;;;;;28.96;38.43;99455.19;4871712;29;20028;-95
2022/08/08 09:59:03;;;;;;;4.57;3.05;;;;;;;29.17;37.77;99473.91;4873408;29;20512;-93
2022/08/08 10:02:31;;;;;;;;;;;;;;;;;;;;;
2022/08/08 10:05:24;;;;;;;6.18;3.40;;;;;;;29.28;37.78;99457.28;4857880;29;20093;-93
2022/08/08 10:07:53;;;;;;;5.80;3.63;;;;;;;29.35;36.65;99457.31;4846251;29;20050;-90
2022/08/08 10:10:51;;;;;;;13.02;8.85;;;;;;;29.46;36.05;99452.56;4846767;29;20148;-91
2022/08/08 10:13:32;;;;;;;4.88;3.15;;;;;;;29.50;35.81;99453.34;4811479;29;20041;-90
2022/08/08 10:19:44;;;;;;;4.20;2.95;;;;;;;29.61;36.16;99420.06;4781192;29;20041;-91
2022/08/08 10:22:18;;;;;;;5.00;3.25;;;;;;;29.74;35.60;99420.50;4807088;29;20043;-89
2022/08/08 10:25:24;;;;;;;3.90;2.65;;;;;;;29.89;34.31;99435.94;4833891;29;20045;-95
2022/08/08 10:27:53;;;;;;;5.70;2.97;;;;;;;29.93;34.88;99430.41;4844378;29;20076;-91
2022/08/08 10:30:23;;;;;;;6.65;4.28;;;;;;;29.74;34.77;99417.72;4862044;29;20120;-89
2022/08/08 10:32:54;;;;;;;14.45;10.05;;;;;;;29.98;35.00;99432.75;4843334;29;20100;-92
2022/08/08 10:35:27;;;;;;;4.75;3.03;;;;;;;29.98;34.97;99419.66;4869896;29;20046;-93
2022/08/08 10:38:00;;;;;;;4.68;3.25;;;;;;;30.10;35.27;99410.13;4905475;29;20037;-96
2022/08/08 10:40:50;;;;;;;;;;;;;;;;;;;;;
2022/08/08 10:43:22;;;;;;;6.10;4.03;;;;;;;30.35;34.87;99390.66;4919941;29;20110;-94
2022/08/08 10:53:21;;;;;;;;;;;;;;;;;;;;;
2022/08/08 10:56:04;;;;;;;4.97;2.95;;;;;;;30.75;34.11;99384.91;4899817;29;20032;-92
2022/08/08 10:58:40;;;;;;;3.47;2.60;;;;;;;30.87;32.13;99390.03;4875568;29;20455;-94
2022/08/08 11:02:01;;;;;;;4.90;2.88;;;;;;;31.06;33.63;99396.28;4896277;29;20070;-92
2022/08/08 11:04:27;;;;;;;6.90;2.90;;;;;;;31.06;31.40;99379.59;4914615;29;20467;-95
2022/08/08 11:07:28;;;;;;;4.53;2.60;;;;;;;30.98;31.31;99384.41;4899653;29;20032;-95
2022/08/08 11:10:04;;;;;;;3.70;2.78;;;;;;;31.06;31.56;99393.50;4908780;29;20040;-94
2022/08/08 11:12:59;;;;;;;4.63;3.00;;;;;;;30.88;31.78;99361.06;4906508;29;20065;-92
2022/08/08 11:15:28;;;;;;;3.47;2.50;;;;;;;31.03;31.31;99367.31;4893476;29;20058;-94
2022/08/08 11:18:43;;;;;;;3.28;2.40;;;;;;;31.30;30.71;99387.00;4887984;29;20036;-95
2022/08/08 11:21:18;;;;;;;5.85;2.50;;;;;;;31.39;30.46;99376.16;4911214;29;20051;-95
2022/08/08 11:24:09;;;;;;;5.63;2.50;;;;;;;31.38;30.71;99368.25;4926384;29;20051;-93
2022/08/08 11:26:37;;;;;;;6.10;2.30;;;;;;;31.36;30.53;99353.97;4907317;29;20067;-95
2022/08/08 11:29:04;;;;;;;5.60;3.72;;;;;;;31.47;30.49;99351.09;4884635;29;20100;-96
2022/08/08 11:31:33;;;;;;;4.43;2.92;;;;;;;31.79;30.69;99359.16;4862432;29;20041;-96
2022/08/08 11:34:22;;;;;;;;;;;;;;;;;;;;;
2022/08/08 11:37:05;;;;;;;3.97;2.58;;;;;;;31.89;30.74;99341.53;4879283;29;20589;-94
2022/08/08 11:39:31;;;;;;;4.65;2.80;;;;;;;31.93;30.29;99349.88;4885669;29;20491;-94
2022/08/08 11:42:01;;;;;;;5.13;2.55;;;;;;;31.62;30.16;99338.63;4871913;29;20083;-94
2022/08/08 11:44:39;;;;;;;7.13;2.92;;;;;;;31.64;30.59;99341.78;4867395;29;20071;-93
2022/08/08 11:47:07;;;;;;;4.65;2.30;;;;;;;31.70;29.66;99354.06;4851154;29;20506;-93
2022/08/08 11:49:33;;;;;;;4.57;2.65;;;;;;;31.61;29.62;99354.56;4853818;29;20033;-90
2022/08/08 11:52:18;;;;;;;5.30;2.53;;;;;;;31.61;29.72;99332.28;4858830;29;20041;-92
2022/08/08 11:54:44;;;;;;;3.88;2.50;;;;;;;31.77;29.34;99334.53;4862238;29;20038;-91
2022/08/08 11:57:24;;;;;;;5.10;3.30;;;;;;;31.96;29.70;99332.31;4852881;29;20052;-93
2022/08/08 11:59:59;;;;;;;4.47;2.70;;;;;;;31.90;29.80;99337.56;4812693;29;20124;-95
2022/08/08 12:02:29;;;;;;;4.15;3.45;;;;;;;31.98;29.29;99324.31;4844361;29;20042;-95
2022/08/08 12:08:45;;;;;;;18.02;9.43;;;;;;;32.23;30.12;99332.44;4855951;29;20184;-94
2022/08/08 12:11:14;;;;;;;4.40;2.83;;;;;;;32.20;29.48;99334.06;4861135;29;20037;-96
2022/08/08 12:13:40;;;;;;;4.22;2.90;;;;;;;32.23;28.79;99324.09;4879555;29;20496;-93
2022/08/08 12:16:08;;;;;;;11.05;4.45;;;;;;;32.45;27.77;99332.16;4866600;29;20112;-96
2022/08/08 12:18:48;;;;;;;5.47;3.75;;;;;;;32.23;27.00;99307.38;4866107;29;20033;-93
2022/08/08 12:22:03;;;;;;;;;;;;;;;;;;;;;
2022/08/08 12:24:56;;;;;;;5.05;2.10;;;;;;;32.65;25.25;99305.22;4895494;29;20494;-94
2022/08/08 12:27:41;;;;;;;13.10;7.53;;;;;;;32.96;25.44;99319.13;4899558;29;20038;-91
2022/08/08 12:30:07;;;;;;;5.85;3.35;;;;;;;32.98;24.07;99294.38;4901300;29;20451;-93
2022/08/08 12:32:43;;;;;;;2.90;2.17;;;;;;;32.98;24.54;99300.75;4940374;29;20038;-94
2022/08/08 12:35:22;;;;;;;3.25;2.58;;;;;;;32.93;25.54;99292.06;4925699;29;20024;-92
2022/08/08 12:38:01;;;;;;;6.25;2.35;;;;;;;32.68;25.66;99298.81;4942147;29;20035;-94
2022/08/08 12:40:43;;;;;;;3.08;1.90;;;;;;;32.56;23.59;99289.03;4943288;29;20115;-96
2022/08/08 12:43:09;;;;;;;3.67;2.15;;;;;;;32.76;24.00;99300.28;4942834;29;20142;-95
2022/08/08 12:45:39;;;;;;;3.75;2.03;;;;;;;32.81;23.79;99294.25;4941807;29;20032;-93
2022/08/08 12:48:25;;;;;;;9.20;5.25;;;;;;;33.07;24.64;99291.84;4924942;29;20023;-95
2022/08/08 12:50:54;;;;;;;7.05;3.95;;;;;;;33.08;25.02;99287.06;4918255;29;20040;-93
2022/08/08 12:53:25;;;;;;;5.93;2.45;;;;;;;33.28;25.27;99289.94;4920413;29;20027;-93